createdAt,value
2018-04-23T00:01:39.077Z,7.93
2018-04-23T00:04:06.625Z,8.00
2018-04-23T00:06:34.186Z,7.93
2018-04-23T00:09:01.722Z,8.27
2018-04-23T00:11:29.270Z,8.50
2018-04-23T00:13:57.267Z,8.57
2018-04-23T00:16:39.802Z,7.90
2018-04-23T01:13:55.959Z,10.67
2018-04-23T01:16:23.503Z,11.33
2018-04-23T01:19:07.963Z,11.43
2018-04-23T03:20:11.103Z,16.50
2018-04-23T03:25:32.338Z,16.97
2018-04-23T03:28:02.962Z,17.03
2018-04-23T03:30:30.497Z,16.20
2018-04-23T03:32:58.035Z,17.37
2018-04-23T03:35:25.612Z,16.97
2018-04-23T03:37:53.155Z,16.57
2018-04-23T03:40:20.703Z,17.73
2018-04-23T03:42:48.249Z,16.90
2018-04-23T03:45:16.559Z,16.60
2018-04-23T03:47:44.103Z,17.77
2018-04-23T03:50:11.639Z,16.93
2018-04-23T03:52:39.930Z,16.87
2018-04-23T03:55:07.464Z,15.73
2018-04-23T03:57:35.004Z,16.03
2018-04-23T04:00:05.571Z,16.13
2018-04-23T04:02:33.870Z,16.13
2018-04-23T04:05:01.415Z,16.50
2018-04-23T04:07:28.953Z,15.80
2018-04-23T04:09:56.491Z,16.57
2018-04-23T04:15:28.873Z,15.77
2018-04-23T04:20:50.172Z,16.67
2018-04-23T05:14:58.316Z,13.73
2018-04-23T05:17:26.667Z,13.67
2018-04-23T05:19:54.213Z,13.73
2018-04-23T05:22:21.758Z,13.53
2018-04-23T05:24:49.405Z,13.77
2018-04-23T05:27:20.135Z,12.83
2018-04-23T05:29:47.681Z,14.10
2018-04-23T05:32:16.086Z,13.53
2018-04-23T05:34:43.672Z,12.40
2018-04-23T05:37:11.268Z,12.43
2018-04-23T05:39:39.580Z,12.37
2018-04-23T05:42:07.126Z,11.63
2018-04-23T05:44:34.712Z,13.23
2018-04-23T05:47:02.294Z,13.10
2018-04-23T05:49:29.835Z,12.23
2018-04-23T05:51:57.368Z,11.93
2018-04-23T05:54:24.964Z,11.40
2018-04-23T05:56:52.521Z,10.53
2018-04-23T05:59:23.156Z,10.73
2018-04-23T06:01:50.683Z,9.80
2018-04-23T06:04:18.222Z,10.20
2018-04-23T06:06:46.522Z,10.17
2018-04-23T06:09:14.069Z,9.53
2018-04-23T06:11:42.363Z,9.87
2018-04-23T06:14:09.991Z,8.70
2018-04-23T06:16:38.328Z,10.30
2018-04-23T06:25:05.321Z,9.13
2018-04-23T06:27:32.874Z,10.03
2018-04-23T06:30:00.417Z,9.57
2018-04-23T06:32:27.970Z,9.47
2018-04-23T06:34:55.520Z,10.00
2018-04-23T06:37:23.055Z,10.10
2018-04-23T06:39:50.599Z,10.50
2018-04-23T06:42:18.145Z,10.43
2018-04-23T06:44:45.685Z,11.30
2018-04-23T06:47:13.232Z,10.40
2018-04-23T06:49:40.778Z,11.67
2018-04-23T06:52:11.413Z,11.63
2018-04-23T06:54:38.943Z,12.33
2018-04-23T06:57:06.488Z,11.57
2018-04-23T06:59:34.037Z,13.03
2018-04-23T07:02:01.572Z,12.50
2018-04-23T07:04:29.227Z,12.57
2018-04-23T07:06:56.764Z,11.33
2018-04-23T07:09:25.063Z,11.50
2018-04-23T07:11:52.603Z,11.93
2018-04-23T07:20:21.971Z,12.97
2018-04-23T07:23:10.442Z,14.00
2018-04-23T07:25:38.009Z,15.53
2018-04-23T07:28:06.579Z,15.63
2018-04-23T07:30:34.114Z,14.40
2018-04-23T07:33:01.668Z,15.87
2018-04-23T07:35:29.220Z,16.87
2018-04-23T07:37:57.531Z,16.73
2018-04-23T07:40:25.075Z,52.70
2018-04-23T07:42:52.622Z,19.80
2018-04-23T07:45:20.929Z,19.13
2018-04-23T07:47:48.494Z,16.90
2018-04-23T07:50:19.144Z,17.70
2018-04-23T07:52:46.687Z,16.17
2018-04-23T07:55:14.224Z,18.47
2018-04-23T07:57:41.777Z,20.43
2018-04-23T08:00:09.324Z,19.63
2018-04-23T08:02:37.624Z,17.23
2018-04-23T08:05:05.623Z,16.30
2018-04-23T08:07:36.281Z,20.30
2018-04-23T08:10:03.829Z,21.47
2018-04-23T08:12:31.857Z,19.83
2018-04-23T08:17:52.402Z,22.07
2018-04-23T08:20:22.928Z,21.10
2018-04-23T08:26:05.568Z,19.27
2018-04-23T08:28:44.203Z,21.57
2018-04-23T08:56:22.660Z,27.17
2018-04-23T08:58:56.080Z,23.20
2018-04-23T09:01:23.686Z,26.47
2018-04-23T09:03:51.705Z,22.13
2018-04-23T09:06:19.286Z,27.30
2018-04-23T09:08:46.836Z,31.23
2018-04-23T09:11:14.382Z,30.73
2018-04-23T09:13:41.944Z,31.80
2018-04-23T09:16:09.562Z,31.10
2018-04-23T09:18:37.257Z,22.63
2018-04-23T09:24:01.111Z,26.80
2018-04-23T10:15:37.596Z,27.90
2018-04-23T10:18:05.158Z,29.60
2018-04-23T10:28:13.009Z,28.00
2018-04-23T10:30:40.544Z,31.00
2018-04-23T10:33:08.084Z,29.60
2018-04-23T10:35:35.627Z,24.60
2018-04-23T10:38:04.057Z,27.60
2018-04-23T10:40:31.635Z,20.77
2018-04-23T10:42:59.226Z,23.43
2018-04-23T10:45:27.571Z,24.20
2018-04-23T10:47:55.120Z,23.70
2018-04-23T10:50:22.647Z,25.80
2018-04-23T10:52:50.182Z,23.67
2018-04-23T10:55:17.732Z,23.53
2018-04-23T10:57:48.352Z,21.07
2018-04-23T11:00:15.881Z,24.63
2018-04-23T11:02:43.413Z,18.10
2018-04-23T11:05:10.942Z,21.43
2018-04-23T11:07:38.480Z,21.63
2018-04-23T11:10:06.016Z,19.93
2018-04-23T11:12:33.552Z,23.60
2018-04-23T11:15:01.084Z,17.97
2018-04-23T11:17:29.418Z,21.10
2018-04-23T11:19:57.027Z,12.67
2018-04-23T11:22:37.705Z,23.60
2018-04-23T11:28:02.096Z,21.87
2018-04-23T11:30:29.643Z,21.77
2018-04-23T11:32:57.189Z,20.63
2018-04-23T11:35:24.729Z,20.83
2018-04-23T11:37:52.270Z,20.57
2018-04-23T11:40:19.803Z,19.60
2018-04-23T11:42:48.050Z,19.67
2018-04-23T11:45:15.587Z,20.40
2018-04-23T11:47:43.129Z,18.40
2018-04-23T11:50:10.674Z,19.23
2018-04-23T11:52:38.221Z,16.40
2018-04-23T11:55:09.077Z,17.10
2018-04-23T11:57:36.680Z,16.73
2018-04-23T12:00:04.360Z,17.40
2018-04-23T12:02:31.995Z,14.93
2018-04-23T12:04:59.547Z,17.10
2018-04-23T12:07:27.131Z,16.53
2018-04-23T12:09:54.700Z,16.27
2018-04-23T12:12:24.351Z,16.40
2018-04-23T12:26:14.896Z,13.20
2018-04-23T12:28:49.823Z,12.97
2018-04-23T12:31:17.436Z,12.93
2018-04-23T12:33:44.993Z,14.40
2018-04-23T12:36:12.559Z,13.37
2018-04-23T12:38:40.123Z,12.33
2018-04-23T12:41:08.592Z,11.10
2018-04-23T12:43:36.154Z,10.87
2018-04-23T12:46:03.784Z,11.10
2018-04-23T12:48:31.321Z,11.10
2018-04-23T12:51:02.668Z,11.00
2018-04-23T12:53:30.190Z,10.33
2018-04-23T12:55:57.763Z,8.67
2018-04-23T12:58:25.346Z,8.43
2018-04-23T13:00:53.036Z,8.73
2018-04-23T13:03:21.366Z,8.80
2018-04-23T13:05:49.566Z,7.60
2018-04-23T13:08:17.914Z,8.43
2018-04-23T13:10:45.475Z,15.83
2018-04-23T13:13:13.051Z,16.33
2018-04-23T13:27:36.107Z,9.67
2018-04-23T13:30:03.667Z,8.20
2018-04-23T13:32:31.227Z,8.13
2018-04-23T13:34:58.782Z,9.60
2018-04-23T13:37:26.338Z,9.07
2018-04-23T13:39:53.949Z,7.83
2018-04-23T13:42:21.507Z,7.00
2018-04-23T13:44:49.150Z,7.87
2018-04-23T13:47:17.492Z,7.33
2018-04-23T13:49:45.040Z,7.27
2018-04-23T13:52:12.619Z,7.37
2018-04-23T13:54:40.172Z,6.20
2018-04-23T13:57:10.976Z,6.30
2018-04-23T13:59:38.572Z,5.97
2018-04-23T14:02:06.133Z,6.27
2018-04-23T14:04:33.704Z,6.37
2018-04-23T14:07:01.294Z,6.50
2018-04-23T14:09:28.868Z,6.10
2018-04-23T14:11:56.418Z,6.10
2018-04-23T14:20:20.605Z,5.27
2018-04-23T14:22:48.159Z,5.20
2018-04-23T14:25:19.082Z,5.10
2018-04-23T14:27:46.647Z,5.50
2018-04-23T14:30:14.212Z,5.60
2018-04-23T14:32:41.801Z,5.47
2018-04-23T14:35:09.363Z,5.57
2018-04-23T14:37:37.804Z,5.03
2018-04-23T14:40:05.486Z,5.10
2018-04-23T14:42:33.135Z,5.17
2018-04-23T14:45:00.695Z,4.73
2018-04-23T14:47:28.267Z,4.43
2018-04-23T14:49:55.834Z,3.80
2018-04-23T14:52:29.318Z,4.17
2018-04-23T14:54:56.911Z,3.63
2018-04-23T14:57:24.490Z,4.00
2018-04-23T14:59:52.055Z,4.10
2018-04-23T15:02:19.607Z,3.20
2018-04-23T15:04:47.943Z,3.07
2018-04-23T15:07:15.509Z,3.13
2018-04-23T15:09:43.073Z,3.00
2018-04-23T15:12:10.655Z,2.70
2018-04-23T15:17:36.023Z,3.50
2018-04-23T15:20:07.072Z,3.23
2018-04-23T15:28:32.183Z,3.00
2018-04-23T15:31:00.494Z,3.20
2018-04-23T15:33:28.058Z,5.77
2018-04-23T15:35:58.930Z,2.70
2018-04-23T15:38:26.508Z,2.73
2018-04-23T15:40:54.834Z,4.17
2018-04-23T15:43:22.400Z,2.83
2018-04-23T15:45:49.945Z,2.67
2018-04-23T15:48:17.519Z,2.40
2018-04-23T15:50:49.319Z,2.30
2018-04-23T15:53:17.740Z,2.27
2018-04-23T15:55:48.493Z,1.80
2018-04-23T15:58:16.148Z,2.10
2018-04-23T16:00:43.711Z,1.87
2018-04-23T16:03:11.307Z,1.90
2018-04-23T16:05:38.855Z,1.90
2018-04-23T16:08:06.419Z,1.50
2018-04-23T16:10:34.670Z,1.63
2018-04-23T16:13:05.448Z,1.63
2018-04-23T16:24:13.305Z,1.50
2018-04-23T16:26:40.881Z,1.70
2018-04-23T16:29:12.150Z,1.40
2018-04-23T16:31:39.713Z,1.27
2018-04-23T16:34:07.329Z,1.40
2018-04-23T16:36:34.946Z,0.90
2018-04-23T16:39:02.554Z,1.10
2018-04-23T16:41:30.153Z,1.13
2018-04-23T16:43:59.346Z,2.00
2018-04-23T16:46:29.475Z,1.20
2018-04-23T17:01:55.339Z,1.10
2018-04-23T17:04:22.930Z,0.90
2018-04-23T17:06:51.264Z,1.20
2018-04-23T17:09:18.872Z,1.30
2018-04-23T17:11:46.455Z,0.90
2018-04-23T17:14:14.420Z,1.33
2018-04-23T17:16:42.009Z,1.20
2018-04-23T17:19:09.623Z,1.03
2018-04-23T19:14:18.680Z,1.47
2018-04-23T19:16:47.216Z,1.70
2018-04-23T19:27:54.320Z,1.67
2018-04-23T19:30:25.162Z,1.80
2018-04-23T19:32:52.783Z,1.93
2018-04-23T19:35:20.398Z,1.80
2018-04-23T19:37:48.920Z,2.00
2018-04-23T19:40:16.542Z,2.00
2018-04-23T19:42:44.155Z,1.80
2018-04-23T19:45:11.808Z,2.00
2018-04-23T19:47:40.202Z,1.80
2018-04-23T19:50:07.829Z,1.80
2018-04-23T19:52:42.106Z,2.10
2018-04-23T19:55:09.709Z,2.50
2018-04-23T19:57:37.681Z,2.00
2018-04-23T20:18:47.470Z,1.97
2018-04-23T20:21:15.065Z,1.80
2018-04-23T20:23:42.645Z,1.83
2018-04-23T20:26:13.474Z,1.70
2018-04-23T20:28:41.070Z,1.63
2018-04-23T20:31:08.676Z,1.60
2018-04-23T20:33:36.257Z,1.80
2018-04-23T20:36:03.820Z,1.40
2018-04-23T20:38:31.381Z,1.50
2018-04-23T20:40:58.942Z,1.27
2018-04-23T20:43:26.495Z,1.10
2018-04-23T20:45:54.059Z,1.20
2018-04-23T20:48:22.325Z,0.97
2018-04-23T20:50:52.969Z,0.90
2018-04-23T20:53:20.546Z,1.30
2018-04-23T20:55:48.096Z,1.40
2018-04-23T20:58:15.653Z,0.97
2018-04-23T21:00:43.203Z,1.60
2018-04-23T21:03:10.795Z,1.50
2018-04-23T21:05:38.361Z,1.50
2018-04-23T21:08:10.050Z,1.50
2018-04-23T21:10:37.607Z,2.20
2018-04-23T21:16:00.874Z,1.83
2018-04-23T21:18:28.433Z,1.67
2018-04-23T21:20:55.988Z,1.30
2018-04-23T21:23:24.288Z,1.70
2018-04-23T21:25:54.974Z,1.73
2018-04-23T21:28:22.458Z,1.43
2018-04-23T21:30:49.990Z,1.90
2018-04-23T21:33:17.534Z,1.70
2018-04-23T21:35:45.093Z,1.63
2018-04-23T21:38:12.635Z,2.17
2018-04-23T21:40:40.160Z,1.53
2018-04-23T21:43:07.680Z,1.43
2018-04-23T21:45:35.199Z,1.60
2018-04-23T21:48:02.726Z,1.83
2018-04-23T21:50:31.030Z,2.03
2018-04-23T21:52:58.637Z,1.70
2018-04-23T21:55:31.966Z,1.50
2018-04-23T21:57:59.630Z,1.57
2018-04-23T22:00:27.165Z,2.00
2018-04-23T22:02:54.715Z,1.70
2018-04-23T22:05:22.283Z,1.57
2018-04-23T22:07:49.807Z,1.50
2018-04-23T22:10:17.349Z,1.60
2018-04-23T22:12:44.905Z,1.93
2018-04-23T22:26:59.449Z,1.63
2018-04-23T22:29:26.984Z,1.57
2018-04-23T22:31:55.326Z,1.23
2018-04-23T22:34:22.848Z,1.80
2018-04-23T22:36:50.389Z,1.60
2018-04-23T22:39:17.941Z,2.07
2018-04-23T22:41:45.467Z,1.60
2018-04-23T22:44:13.013Z,1.60
2018-04-23T22:46:40.565Z,2.47
2018-04-23T22:49:08.124Z,1.83
2018-04-23T22:51:35.667Z,1.57
2018-04-23T22:54:03.194Z,1.83
2018-04-23T22:56:33.841Z,1.80
2018-04-23T22:59:01.366Z,1.77
2018-04-23T23:01:28.885Z,1.77
2018-04-23T23:03:56.421Z,1.90
2018-04-23T23:06:23.973Z,1.80
2018-04-23T23:08:51.504Z,2.13
2018-04-23T23:11:19.038Z,1.90
2018-04-23T23:19:35.166Z,1.73
2018-04-23T23:22:16.904Z,1.93
2018-04-23T23:24:44.461Z,1.70
2018-04-23T23:27:16.349Z,1.57
2018-04-23T23:29:43.898Z,1.70
2018-04-23T23:32:11.456Z,1.90
2018-04-23T23:34:38.990Z,1.70
2018-04-23T23:37:06.523Z,2.20
2018-04-23T23:39:34.073Z,2.20
2018-04-23T23:42:01.603Z,2.03
2018-04-23T23:44:29.131Z,2.10
2018-04-23T23:46:56.661Z,2.13
2018-04-23T23:49:24.260Z,2.10
2018-04-23T23:51:51.794Z,2.03
2018-04-23T23:54:22.492Z,2.00
2018-04-23T23:56:50.026Z,2.60
2018-04-23T23:59:18.115Z,2.60
